sensor_id;sensor_type;location;lat;lon;timestamp;P1;durP1;ratioP1;P2;durP2;ratioP2
65238;SDS011;51827;51.186;6.926;2022-12-10T00:00:44;4.47;;;2.50;;
65238;SDS011;51827;51.186;6.926;2022-12-10T00:01:45;4.47;;;2.27;;
65238;SDS011;51827;51.186;6.926;2022-12-10T00:02:46;5.32;;;2.30;;
65238;SDS011;51827;51.186;6.926;2022-12-10T00:03:47;3.67;;;2.53;;
65238;SDS011;51827;51.186;6.926;2022-12-10T00:04:47;3.70;;;2.50;;
65238;SDS011;51827;51.186;6.926;2022-12-10T00:05:47;4.77;;;2.70;;
65238;SDS011;51827;51.186;6.926;2022-12-10T00:06:48;3.93;;;2.43;;
65238;SDS011;51827;51.186;6.926;2022-12-10T00:07:48;6.55;;;2.33;;
65238;SDS011;51827;51.186;6.926;2022-12-10T00:08:49;3.47;;;2.50;;
65238;SDS011;51827;51.186;6.926;2022-12-10T00:09:50;4.35;;;2.92;;
65238;SDS011;51827;51.186;6.926;2022-12-10T00:10:50;4.97;;;2.73;;
65238;SDS011;51827;51.186;6.926;2022-12-10T00:11:50;4.27;;;2.30;;
65238;SDS011;51827;51.186;6.926;2022-12-10T00:12:50;4.13;;;2.53;;
65238;SDS011;51827;51.186;6.926;2022-12-10T00:13:51;3.37;;;2.60;;
65238;SDS011;51827;51.186;6.926;2022-12-10T00:14:52;3.65;;;2.40;;
65238;SDS011;51827;51.186;6.926;2022-12-10T00:15:52;5.87;;;2.60;;
65238;SDS011;51827;51.186;6.926;2022-12-10T00:16:52;6.67;;;2.60;;
65238;SDS011;51827;51.186;6.926;2022-12-10T00:17:53;4.97;;;2.80;;
65238;SDS011;51827;51.186;6.926;2022-12-10T00:18:53;4.90;;;2.70;;
65238;SDS011;51827;51.186;6.926;2022-12-10T00:19:54;4.13;;;2.65;;
65238;SDS011;51827;51.186;6.926;2022-12-10T00:20:54;4.57;;;2.80;;
65238;SDS011;51827;51.186;6.926;2022-12-10T00:21:55;4.45;;;2.47;;
65238;SDS011;51827;51.186;6.926;2022-12-10T00:22:55;4.60;;;2.70;;
65238;SDS011;51827;51.186;6.926;2022-12-10T00:23:56;4.57;;;3.00;;
65238;SDS011;51827;51.186;6.926;2022-12-10T00:26:10;4.17;;;2.53;;
65238;SDS011;51827;51.186;6.926;2022-12-10T00:27:15;5.32;;;2.58;;
65238;SDS011;51827;51.186;6.926;2022-12-10T00:28:16;4.13;;;2.63;;
65238;SDS011;51827;51.186;6.926;2022-12-10T00:29:16;3.77;;;2.43;;
65238;SDS011;51827;51.186;6.926;2022-12-10T00:30:16;3.60;;;2.40;;
65238;SDS011;51827;51.186;6.926;2022-12-10T00:31:18;3.88;;;2.55;;
65238;SDS011;51827;51.186;6.926;2022-12-10T00:32:22;3.90;;;2.65;;
65238;SDS011;51827;51.186;6.926;2022-12-10T00:33:23;3.93;;;2.33;;
65238;SDS011;51827;51.186;6.926;2022-12-10T00:34:23;4.00;;;2.73;;
65238;SDS011;51827;51.186;6.926;2022-12-10T00:35:23;4.13;;;2.70;;
65238;SDS011;51827;51.186;6.926;2022-12-10T00:36:28;4.97;;;2.70;;
65238;SDS011;51827;51.186;6.926;2022-12-10T00:37:33;4.07;;;2.65;;
65238;SDS011;51827;51.186;6.926;2022-12-10T00:38:33;3.70;;;2.70;;
65238;SDS011;51827;51.186;6.926;2022-12-10T00:39:33;6.85;;;2.90;;
65238;SDS011;51827;51.186;6.926;2022-12-10T00:40:33;4.07;;;2.47;;
65238;SDS011;51827;51.186;6.926;2022-12-10T00:41:34;4.23;;;3.00;;
65238;SDS011;51827;51.186;6.926;2022-12-10T00:42:34;4.60;;;2.50;;
65238;SDS011;51827;51.186;6.926;2022-12-10T00:43:35;6.53;;;2.80;;
65238;SDS011;51827;51.186;6.926;2022-12-10T00:44:35;5.22;;;2.60;;
65238;SDS011;51827;51.186;6.926;2022-12-10T00:45:35;7.33;;;2.73;;
65238;SDS011;51827;51.186;6.926;2022-12-10T00:46:35;4.47;;;2.73;;
65238;SDS011;51827;51.186;6.926;2022-12-10T00:47:36;5.90;;;2.70;;
65238;SDS011;51827;51.186;6.926;2022-12-10T00:48:36;3.20;;;2.60;;
65238;SDS011;51827;51.186;6.926;2022-12-10T00:49:36;4.13;;;2.53;;
65238;SDS011;51827;51.186;6.926;2022-12-10T00:50:37;4.07;;;2.80;;
65238;SDS011;51827;51.186;6.926;2022-12-10T00:51:37;5.37;;;2.67;;
65238;SDS011;51827;51.186;6.926;2022-12-10T00:52:38;4.55;;;2.72;;
65238;SDS011;51827;51.186;6.926;2022-12-10T00:53:38;3.20;;;2.50;;
65238;SDS011;51827;51.186;6.926;2022-12-10T00:54:40;5.32;;;2.72;;
65238;SDS011;51827;51.186;6.926;2022-12-10T00:55:40;9.13;;;3.00;;
65238;SDS011;51827;51.186;6.926;2022-12-10T00:56:40;8.90;;;2.53;;
65238;SDS011;51827;51.186;6.926;2022-12-10T00:57:41;5.70;;;2.80;;
65238;SDS011;51827;51.186;6.926;2022-12-10T00:58:41;6.57;;;2.40;;
65238;SDS011;51827;51.186;6.926;2022-12-10T00:59:41;5.03;;;2.60;;
65238;SDS011;51827;51.186;6.926;2022-12-10T01:00:41;3.90;;;2.50;;
65238;SDS011;51827;51.186;6.926;2022-12-10T01:01:42;4.93;;;2.70;;
65238;SDS011;51827;51.186;6.926;2022-12-10T01:02:42;3.63;;;2.50;;
65238;SDS011;51827;51.186;6.926;2022-12-10T01:03:43;4.70;;;2.87;;
65238;SDS011;51827;51.186;6.926;2022-12-10T01:04:44;8.02;;;2.55;;
65238;SDS011;51827;51.186;6.926;2022-12-10T01:05:45;5.57;;;2.90;;
65238;SDS011;51827;51.186;6.926;2022-12-10T01:06:47;5.60;;;2.83;;
65238;SDS011;51827;51.186;6.926;2022-12-10T01:07:49;5.40;;;2.25;;
65238;SDS011;51827;51.186;6.926;2022-12-10T01:08:51;5.50;;;2.90;;
65238;SDS011;51827;51.186;6.926;2022-12-10T01:09:52;3.80;;;2.50;;
65238;SDS011;51827;51.186;6.926;2022-12-10T01:10:53;4.65;;;2.67;;
65238;SDS011;51827;51.186;6.926;2022-12-10T01:11:53;5.63;;;2.63;;
65238;SDS011;51827;51.186;6.926;2022-12-10T01:12:55;5.38;;;2.72;;
65238;SDS011;51827;51.186;6.926;2022-12-10T01:13:56;3.53;;;2.40;;
65238;SDS011;51827;51.186;6.926;2022-12-10T01:14:56;6.78;;;2.92;;
65238;SDS011;51827;51.186;6.926;2022-12-10T01:15:59;7.27;;;2.53;;
65238;SDS011;51827;51.186;6.926;2022-12-10T01:17:01;5.60;;;2.67;;
65238;SDS011;51827;51.186;6.926;2022-12-10T01:18:03;4.97;;;2.53;;
65238;SDS011;51827;51.186;6.926;2022-12-10T01:19:03;3.97;;;2.58;;
65238;SDS011;51827;51.186;6.926;2022-12-10T01:20:04;5.72;;;2.53;;
65238;SDS011;51827;51.186;6.926;2022-12-10T01:21:05;5.75;;;2.65;;
65238;SDS011;51827;51.186;6.926;2022-12-10T01:22:07;7.47;;;2.58;;
65238;SDS011;51827;51.186;6.926;2022-12-10T01:23:08;3.93;;;2.30;;
65238;SDS011;51827;51.186;6.926;2022-12-10T01:24:08;6.63;;;2.30;;
65238;SDS011;51827;51.186;6.926;2022-12-10T01:25:08;4.70;;;2.57;;
65238;SDS011;51827;51.186;6.926;2022-12-10T01:26:10;5.68;;;2.80;;
65238;SDS011;51827;51.186;6.926;2022-12-10T01:27:12;4.13;;;2.40;;
65238;SDS011;51827;51.186;6.926;2022-12-10T01:28:12;3.13;;;2.33;;
65238;SDS011;51827;51.186;6.926;2022-12-10T01:29:13;4.70;;;2.40;;
65238;SDS011;51827;51.186;6.926;2022-12-10T01:30:14;4.40;;;2.42;;
65238;SDS011;51827;51.186;6.926;2022-12-10T01:31:15;4.00;;;2.67;;
65238;SDS011;51827;51.186;6.926;2022-12-10T01:32:17;3.97;;;2.50;;
65238;SDS011;51827;51.186;6.926;2022-12-10T01:33:18;4.83;;;2.83;;
65238;SDS011;51827;51.186;6.926;2022-12-10T01:34:18;4.60;;;2.67;;
65238;SDS011;51827;51.186;6.926;2022-12-10T01:35:18;3.77;;;2.47;;
65238;SDS011;51827;51.186;6.926;2022-12-10T01:37:20;3.65;;;2.38;;
65238;SDS011;51827;51.186;6.926;2022-12-10T01:38:21;6.00;;;2.90;;
65238;SDS011;51827;51.186;6.926;2022-12-10T01:39:21;3.43;;;2.33;;
65238;SDS011;51827;51.186;6.926;2022-12-10T01:40:22;4.28;;;2.30;;
65238;SDS011;51827;51.186;6.926;2022-12-10T01:41:25;5.17;;;2.60;;
65238;SDS011;51827;51.186;6.926;2022-12-10T01:42:27;4.20;;;2.70;;
65238;SDS011;51827;51.186;6.926;2022-12-10T01:43:27;4.33;;;2.60;;
65238;SDS011;51827;51.186;6.926;2022-12-10T01:45:47;4.83;;;2.40;;
65238;SDS011;51827;51.186;6.926;2022-12-10T01:46:48;3.97;;;2.17;;
65238;SDS011;51827;51.186;6.926;2022-12-10T01:47:50;4.30;;;2.35;;
65238;SDS011;51827;51.186;6.926;2022-12-10T01:48:50;3.77;;;2.40;;
65238;SDS011;51827;51.186;6.926;2022-12-10T01:49:51;3.42;;;2.33;;
65238;SDS011;51827;51.186;6.926;2022-12-10T01:50:51;5.57;;;2.47;;
65238;SDS011;51827;51.186;6.926;2022-12-10T01:51:53;3.87;;;2.43;;
65238;SDS011;51827;51.186;6.926;2022-12-10T01:52:54;5.10;;;2.50;;
65238;SDS011;51827;51.186;6.926;2022-12-10T01:53:55;3.57;;;2.40;;
65238;SDS011;51827;51.186;6.926;2022-12-10T01:54:55;3.90;;;2.30;;
65238;SDS011;51827;51.186;6.926;2022-12-10T01:55:55;4.30;;;2.57;;
65238;SDS011;51827;51.186;6.926;2022-12-10T01:56:59;9.43;;;2.43;;
65238;SDS011;51827;51.186;6.926;2022-12-10T01:58:01;4.70;;;2.40;;
65238;SDS011;51827;51.186;6.926;2022-12-10T01:59:02;4.70;;;2.63;;
65238;SDS011;51827;51.186;6.926;2022-12-10T02:00:04;4.57;;;2.40;;
65238;SDS011;51827;51.186;6.926;2022-12-10T02:01:10;3.60;;;2.25;;
65238;SDS011;51827;51.186;6.926;2022-12-10T02:05:07;5.25;;;2.55;;
65238;SDS011;51827;51.186;6.926;2022-12-10T02:08:26;4.40;;;2.33;;
65238;SDS011;51827;51.186;6.926;2022-12-10T02:13:25;4.20;;;2.40;;
65238;SDS011;51827;51.186;6.926;2022-12-10T02:16:04;4.10;;;2.30;;
65238;SDS011;51827;51.186;6.926;2022-12-10T02:17:37;2.88;;;2.03;;
65238;SDS011;51827;51.186;6.926;2022-12-10T02:21:07;3.20;;;2.20;;
65238;SDS011;51827;51.186;6.926;2022-12-10T02:22:14;4.25;;;2.42;;
65238;SDS011;51827;51.186;6.926;2022-12-10T02:24:26;4.35;;;2.30;;
65238;SDS011;51827;51.186;6.926;2022-12-10T02:27:12;3.10;;;1.95;;
65238;SDS011;51827;51.186;6.926;2022-12-10T02:29:47;5.80;;;2.20;;
65238;SDS011;51827;51.186;6.926;2022-12-10T02:30:48;3.65;;;2.38;;
65238;SDS011;51827;51.186;6.926;2022-12-10T02:32:01;3.78;;;2.20;;
65238;SDS011;51827;51.186;6.926;2022-12-10T02:33:06;2.95;;;2.25;;
65238;SDS011;51827;51.186;6.926;2022-12-10T02:34:08;4.65;;;2.38;;
65238;SDS011;51827;51.186;6.926;2022-12-10T02:35:11;3.90;;;2.17;;
65238;SDS011;51827;51.186;6.926;2022-12-10T02:36:15;3.30;;;2.10;;
65238;SDS011;51827;51.186;6.926;2022-12-10T02:37:29;3.90;;;2.10;;
65238;SDS011;51827;51.186;6.926;2022-12-10T02:38:32;3.75;;;2.20;;
65238;SDS011;51827;51.186;6.926;2022-12-10T02:39:39;3.15;;;2.28;;
65238;SDS011;51827;51.186;6.926;2022-12-10T02:40:45;2.83;;;2.08;;
65238;SDS011;51827;51.186;6.926;2022-12-10T02:41:50;3.90;;;2.28;;
65238;SDS011;51827;51.186;6.926;2022-12-10T02:42:53;2.92;;;2.10;;
65238;SDS011;51827;51.186;6.926;2022-12-10T02:43:53;2.73;;;1.87;;
65238;SDS011;51827;51.186;6.926;2022-12-10T02:44:56;3.80;;;2.45;;
65238;SDS011;51827;51.186;6.926;2022-12-10T02:46:58;3.42;;;2.22;;
65238;SDS011;51827;51.186;6.926;2022-12-10T02:48:01;5.28;;;2.72;;
65238;SDS011;51827;51.186;6.926;2022-12-10T02:49:04;3.50;;;2.00;;
65238;SDS011;51827;51.186;6.926;2022-12-10T02:50:06;4.63;;;2.55;;
65238;SDS011;51827;51.186;6.926;2022-12-10T02:51:09;3.42;;;2.35;;
65238;SDS011;51827;51.186;6.926;2022-12-10T02:52:12;3.40;;;2.40;;
65238;SDS011;51827;51.186;6.926;2022-12-10T02:53:13;5.93;;;2.30;;
65238;SDS011;51827;51.186;6.926;2022-12-10T02:55:42;2.75;;;2.05;;
65238;SDS011;51827;51.186;6.926;2022-12-10T02:56:52;3.13;;;2.15;;
65238;SDS011;51827;51.186;6.926;2022-12-10T02:58:20;3.22;;;2.13;;
65238;SDS011;51827;51.186;6.926;2022-12-10T03:00:24;3.33;;;2.50;;
65238;SDS011;51827;51.186;6.926;2022-12-10T03:01:40;3.67;;;2.13;;
65238;SDS011;51827;51.186;6.926;2022-12-10T03:04:00;3.85;;;2.30;;
65238;SDS011;51827;51.186;6.926;2022-12-10T03:05:07;4.43;;;2.00;;
65238;SDS011;51827;51.186;6.926;2022-12-10T03:06:22;4.93;;;2.28;;
65238;SDS011;51827;51.186;6.926;2022-12-10T03:07:34;3.00;;;2.10;;
65238;SDS011;51827;51.186;6.926;2022-12-10T03:09:53;3.58;;;2.30;;
65238;SDS011;51827;51.186;6.926;2022-12-10T03:12:14;3.72;;;2.15;;
65238;SDS011;51827;51.186;6.926;2022-12-10T03:13:21;3.72;;;2.10;;
65238;SDS011;51827;51.186;6.926;2022-12-10T03:14:28;4.03;;;2.20;;
65238;SDS011;51827;51.186;6.926;2022-12-10T03:15:31;3.10;;;1.92;;
65238;SDS011;51827;51.186;6.926;2022-12-10T03:16:35;2.97;;;2.10;;
65238;SDS011;51827;51.186;6.926;2022-12-10T03:17:40;2.85;;;1.98;;
65238;SDS011;51827;51.186;6.926;2022-12-10T03:18:43;4.30;;;2.10;;
65238;SDS011;51827;51.186;6.926;2022-12-10T03:19:46;4.15;;;2.35;;
65238;SDS011;51827;51.186;6.926;2022-12-10T03:20:50;3.50;;;2.22;;
65238;SDS011;51827;51.186;6.926;2022-12-10T03:21:52;3.78;;;2.28;;
65238;SDS011;51827;51.186;6.926;2022-12-10T03:22:53;5.28;;;2.13;;
65238;SDS011;51827;51.186;6.926;2022-12-10T03:24:55;5.17;;;2.40;;
65238;SDS011;51827;51.186;6.926;2022-12-10T03:25:58;3.70;;;2.47;;
65238;SDS011;51827;51.186;6.926;2022-12-10T03:27:59;4.20;;;2.33;;
65238;SDS011;51827;51.186;6.926;2022-12-10T03:29:03;3.08;;;2.15;;
65238;SDS011;51827;51.186;6.926;2022-12-10T03:30:08;3.70;;;2.10;;
65238;SDS011;51827;51.186;6.926;2022-12-10T03:31:09;2.75;;;1.95;;
65238;SDS011;51827;51.186;6.926;2022-12-10T03:32:10;4.93;;;2.20;;
65238;SDS011;51827;51.186;6.926;2022-12-10T03:33:13;3.13;;;2.10;;
65238;SDS011;51827;51.186;6.926;2022-12-10T03:34:13;2.90;;;2.00;;
65238;SDS011;51827;51.186;6.926;2022-12-10T03:35:14;2.92;;;2.10;;
65238;SDS011;51827;51.186;6.926;2022-12-10T03:36:17;3.10;;;1.90;;
65238;SDS011;51827;51.186;6.926;2022-12-10T03:37:19;3.63;;;2.20;;
65238;SDS011;51827;51.186;6.926;2022-12-10T03:38:20;3.08;;;1.85;;
65238;SDS011;51827;51.186;6.926;2022-12-10T03:39:20;3.67;;;2.07;;
65238;SDS011;51827;51.186;6.926;2022-12-10T03:40:22;4.38;;;2.30;;
65238;SDS011;51827;51.186;6.926;2022-12-10T03:41:24;2.95;;;2.00;;
65238;SDS011;51827;51.186;6.926;2022-12-10T03:42:24;3.97;;;2.30;;
65238;SDS011;51827;51.186;6.926;2022-12-10T03:43:24;4.00;;;2.17;;
65238;SDS011;51827;51.186;6.926;2022-12-10T03:44:29;4.47;;;2.20;;
65238;SDS011;51827;51.186;6.926;2022-12-10T03:45:33;3.83;;;2.28;;
65238;SDS011;51827;51.186;6.926;2022-12-10T03:46:34;4.97;;;2.30;;
65238;SDS011;51827;51.186;6.926;2022-12-10T03:47:34;3.20;;;2.17;;
65238;SDS011;51827;51.186;6.926;2022-12-10T03:48:34;3.50;;;2.10;;
65238;SDS011;51827;51.186;6.926;2022-12-10T03:49:34;5.03;;;2.30;;
65238;SDS011;51827;51.186;6.926;2022-12-10T03:50:35;3.23;;;2.13;;
65238;SDS011;51827;51.186;6.926;2022-12-10T03:51:35;2.77;;;2.13;;
65238;SDS011;51827;51.186;6.926;2022-12-10T03:52:35;3.13;;;2.10;;
65238;SDS011;51827;51.186;6.926;2022-12-10T03:53:36;3.35;;;2.10;;
65238;SDS011;51827;51.186;6.926;2022-12-10T03:54:36;3.70;;;2.30;;
65238;SDS011;51827;51.186;6.926;2022-12-10T03:55:36;5.40;;;2.20;;
65238;SDS011;51827;51.186;6.926;2022-12-10T03:56:37;2.57;;;2.00;;
65238;SDS011;51827;51.186;6.926;2022-12-10T03:57:37;3.92;;;2.10;;
65238;SDS011;51827;51.186;6.926;2022-12-10T03:58:37;3.20;;;2.20;;
65238;SDS011;51827;51.186;6.926;2022-12-10T03:59:38;3.53;;;2.20;;
65238;SDS011;51827;51.186;6.926;2022-12-10T04:00:38;3.53;;;2.10;;
65238;SDS011;51827;51.186;6.926;2022-12-10T04:01:38;2.50;;;1.80;;
65238;SDS011;51827;51.186;6.926;2022-12-10T04:02:38;3.13;;;2.07;;
65238;SDS011;51827;51.186;6.926;2022-12-10T04:03:39;3.20;;;1.98;;
65238;SDS011;51827;51.186;6.926;2022-12-10T04:04:42;4.65;;;2.30;;
65238;SDS011;51827;51.186;6.926;2022-12-10T04:05:42;2.90;;;2.20;;
65238;SDS011;51827;51.186;6.926;2022-12-10T04:06:42;2.90;;;2.30;;
65238;SDS011;51827;51.186;6.926;2022-12-10T04:07:43;3.22;;;2.10;;
65238;SDS011;51827;51.186;6.926;2022-12-10T04:08:43;3.30;;;2.10;;
65238;SDS011;51827;51.186;6.926;2022-12-10T04:09:44;2.95;;;2.13;;
65238;SDS011;51827;51.186;6.926;2022-12-10T04:10:44;4.87;;;2.03;;
65238;SDS011;51827;51.186;6.926;2022-12-10T04:11:45;2.87;;;2.00;;
65238;SDS011;51827;51.186;6.926;2022-12-10T04:12:45;6.77;;;2.50;;
65238;SDS011;51827;51.186;6.926;2022-12-10T04:13:45;4.23;;;2.20;;
65238;SDS011;51827;51.186;6.926;2022-12-10T04:14:45;2.50;;;1.97;;
65238;SDS011;51827;51.186;6.926;2022-12-10T04:15:45;4.47;;;2.10;;
65238;SDS011;51827;51.186;6.926;2022-12-10T04:16:46;3.30;;;2.20;;
65238;SDS011;51827;51.186;6.926;2022-12-10T04:17:46;6.17;;;2.20;;
65238;SDS011;51827;51.186;6.926;2022-12-10T04:18:46;2.60;;;1.93;;
65238;SDS011;51827;51.186;6.926;2022-12-10T04:19:46;3.07;;;2.23;;
65238;SDS011;51827;51.186;6.926;2022-12-10T04:20:47;4.20;;;2.10;;
65238;SDS011;51827;51.186;6.926;2022-12-10T04:21:47;3.37;;;2.20;;
65238;SDS011;51827;51.186;6.926;2022-12-10T04:22:48;3.25;;;2.17;;
65238;SDS011;51827;51.186;6.926;2022-12-10T04:23:48;3.33;;;2.13;;
65238;SDS011;51827;51.186;6.926;2022-12-10T04:24:48;3.83;;;2.40;;
65238;SDS011;51827;51.186;6.926;2022-12-10T04:25:49;3.28;;;2.40;;
65238;SDS011;51827;51.186;6.926;2022-12-10T04:26:49;2.80;;;1.80;;
65238;SDS011;51827;51.186;6.926;2022-12-10T04:27:50;2.83;;;1.97;;
65238;SDS011;51827;51.186;6.926;2022-12-10T04:28:50;3.23;;;2.10;;
65238;SDS011;51827;51.186;6.926;2022-12-10T04:29:50;3.73;;;2.30;;
65238;SDS011;51827;51.186;6.926;2022-12-10T04:31:52;2.77;;;1.93;;
65238;SDS011;51827;51.186;6.926;2022-12-10T04:32:52;2.72;;;1.95;;
65238;SDS011;51827;51.186;6.926;2022-12-10T04:33:52;3.37;;;1.90;;
65238;SDS011;51827;51.186;6.926;2022-12-10T04:34:53;4.70;;;2.17;;
65238;SDS011;51827;51.186;6.926;2022-12-10T04:35:54;3.53;;;2.10;;
65238;SDS011;51827;51.186;6.926;2022-12-10T04:36:54;3.67;;;2.07;;
65238;SDS011;51827;51.186;6.926;2022-12-10T04:37:56;4.18;;;2.17;;
65238;SDS011;51827;51.186;6.926;2022-12-10T04:38:56;2.73;;;1.90;;
65238;SDS011;51827;51.186;6.926;2022-12-10T04:39:56;3.53;;;2.10;;
65238;SDS011;51827;51.186;6.926;2022-12-10T04:40:57;3.37;;;2.00;;
65238;SDS011;51827;51.186;6.926;2022-12-10T04:41:57;3.53;;;2.00;;
65238;SDS011;51827;51.186;6.926;2022-12-10T04:42:59;2.85;;;2.10;;
65238;SDS011;51827;51.186;6.926;2022-12-10T04:43:59;2.60;;;1.90;;
65238;SDS011;51827;51.186;6.926;2022-12-10T04:45:00;4.83;;;2.10;;
65238;SDS011;51827;51.186;6.926;2022-12-10T04:46:00;3.23;;;2.20;;
65238;SDS011;51827;51.186;6.926;2022-12-10T04:47:00;3.10;;;2.07;;
65238;SDS011;51827;51.186;6.926;2022-12-10T04:48:01;3.47;;;2.10;;
65238;SDS011;51827;51.186;6.926;2022-12-10T04:49:02;3.35;;;2.13;;
65238;SDS011;51827;51.186;6.926;2022-12-10T04:50:03;2.30;;;1.73;;
65238;SDS011;51827;51.186;6.926;2022-12-10T04:51:03;4.20;;;1.88;;
65238;SDS011;51827;51.186;6.926;2022-12-10T04:52:04;2.85;;;1.85;;
65238;SDS011;51827;51.186;6.926;2022-12-10T04:53:05;3.22;;;1.95;;
65238;SDS011;51827;51.186;6.926;2022-12-10T04:54:06;4.10;;;2.13;;
65238;SDS011;51827;51.186;6.926;2022-12-10T04:55:06;3.75;;;2.03;;
65238;SDS011;51827;51.186;6.926;2022-12-10T04:56:07;3.10;;;1.95;;
65238;SDS011;51827;51.186;6.926;2022-12-10T04:57:07;2.83;;;1.87;;
65238;SDS011;51827;51.186;6.926;2022-12-10T04:58:08;2.83;;;1.90;;
65238;SDS011;51827;51.186;6.926;2022-12-10T04:59:08;3.47;;;2.10;;
65238;SDS011;51827;51.186;6.926;2022-12-10T05:00:09;3.67;;;2.10;;
65238;SDS011;51827;51.186;6.926;2022-12-10T05:01:10;3.00;;;2.10;;
65238;SDS011;51827;51.186;6.926;2022-12-10T05:03:11;3.05;;;1.98;;
65238;SDS011;51827;51.186;6.926;2022-12-10T05:04:12;2.37;;;1.80;;
65238;SDS011;51827;51.186;6.926;2022-12-10T05:05:14;3.42;;;2.13;;
65238;SDS011;51827;51.186;6.926;2022-12-10T05:06:15;4.17;;;2.00;;
65238;SDS011;51827;51.186;6.926;2022-12-10T05:07:16;3.03;;;2.15;;
65238;SDS011;51827;51.186;6.926;2022-12-10T05:08:16;2.97;;;2.00;;
65238;SDS011;51827;51.186;6.926;2022-12-10T05:09:17;4.17;;;2.13;;
65238;SDS011;51827;51.186;6.926;2022-12-10T05:10:17;3.28;;;2.38;;
65238;SDS011;51827;51.186;6.926;2022-12-10T05:11:19;2.63;;;1.97;;
65238;SDS011;51827;51.186;6.926;2022-12-10T05:12:20;2.45;;;1.85;;
65238;SDS011;51827;51.186;6.926;2022-12-10T05:13:21;2.40;;;1.83;;
65238;SDS011;51827;51.186;6.926;2022-12-10T05:14:21;3.07;;;1.80;;
65238;SDS011;51827;51.186;6.926;2022-12-10T05:15:21;2.92;;;2.00;;
65238;SDS011;51827;51.186;6.926;2022-12-10T05:16:22;3.07;;;2.07;;
65238;SDS011;51827;51.186;6.926;2022-12-10T05:17:24;2.65;;;2.10;;
65238;SDS011;51827;51.186;6.926;2022-12-10T05:18:24;2.50;;;1.90;;
65238;SDS011;51827;51.186;6.926;2022-12-10T05:19:24;3.30;;;2.03;;
65238;SDS011;51827;51.186;6.926;2022-12-10T05:20:24;3.17;;;2.00;;
65238;SDS011;51827;51.186;6.926;2022-12-10T05:21:25;2.97;;;1.90;;
65238;SDS011;51827;51.186;6.926;2022-12-10T05:22:27;4.30;;;2.00;;
65238;SDS011;51827;51.186;6.926;2022-12-10T05:23:27;2.73;;;1.80;;
65238;SDS011;51827;51.186;6.926;2022-12-10T05:24:27;2.70;;;2.00;;
65238;SDS011;51827;51.186;6.926;2022-12-10T05:25:28;3.07;;;2.07;;
65238;SDS011;51827;51.186;6.926;2022-12-10T05:26:28;2.90;;;1.87;;
65238;SDS011;51827;51.186;6.926;2022-12-10T05:27:32;3.67;;;2.40;;
65238;SDS011;51827;51.186;6.926;2022-12-10T05:28:40;4.38;;;2.17;;
65238;SDS011;51827;51.186;6.926;2022-12-10T05:29:46;2.47;;;1.80;;
65238;SDS011;51827;51.186;6.926;2022-12-10T05:30:46;3.20;;;2.33;;
65238;SDS011;51827;51.186;6.926;2022-12-10T05:31:47;3.37;;;2.10;;
65238;SDS011;51827;51.186;6.926;2022-12-10T05:32:47;3.23;;;2.10;;
65238;SDS011;51827;51.186;6.926;2022-12-10T05:33:47;2.90;;;2.07;;
65238;SDS011;51827;51.186;6.926;2022-12-10T05:34:48;2.90;;;1.98;;
65238;SDS011;51827;51.186;6.926;2022-12-10T05:36:06;4.53;;;2.17;;
65238;SDS011;51827;51.186;6.926;2022-12-10T05:37:06;2.70;;;1.70;;
65238;SDS011;51827;51.186;6.926;2022-12-10T05:38:07;2.97;;;1.70;;
65238;SDS011;51827;51.186;6.926;2022-12-10T05:39:07;3.43;;;1.80;;
65238;SDS011;51827;51.186;6.926;2022-12-10T05:40:08;3.25;;;2.22;;
65238;SDS011;51827;51.186;6.926;2022-12-10T05:41:13;3.40;;;2.00;;
65238;SDS011;51827;51.186;6.926;2022-12-10T05:42:15;2.50;;;1.85;;
65238;SDS011;51827;51.186;6.926;2022-12-10T05:43:15;2.67;;;1.80;;
65238;SDS011;51827;51.186;6.926;2022-12-10T05:44:15;3.03;;;1.80;;
65238;SDS011;51827;51.186;6.926;2022-12-10T05:45:15;3.37;;;2.20;;
65238;SDS011;51827;51.186;6.926;2022-12-10T05:46:17;3.20;;;2.03;;
65238;SDS011;51827;51.186;6.926;2022-12-10T05:47:22;3.75;;;2.30;;
65238;SDS011;51827;51.186;6.926;2022-12-10T05:48:22;2.57;;;1.90;;
65238;SDS011;51827;51.186;6.926;2022-12-10T05:49:23;2.83;;;1.80;;
65238;SDS011;51827;51.186;6.926;2022-12-10T05:50:23;3.73;;;2.10;;
65238;SDS011;51827;51.186;6.926;2022-12-10T05:51:24;2.97;;;1.80;;
65238;SDS011;51827;51.186;6.926;2022-12-10T05:52:26;2.75;;;2.00;;
65238;SDS011;51827;51.186;6.926;2022-12-10T05:53:26;3.93;;;2.13;;
65238;SDS011;51827;51.186;6.926;2022-12-10T05:54:26;2.77;;;1.87;;
65238;SDS011;51827;51.186;6.926;2022-12-10T05:55:27;2.93;;;2.03;;
65238;SDS011;51827;51.186;6.926;2022-12-10T05:56:27;2.33;;;1.80;;
65238;SDS011;51827;51.186;6.926;2022-12-10T05:57:27;3.45;;;2.10;;
65238;SDS011;51827;51.186;6.926;2022-12-10T05:58:28;4.23;;;2.10;;
65238;SDS011;51827;51.186;6.926;2022-12-10T06:00:29;4.05;;;2.00;;
65238;SDS011;51827;51.186;6.926;2022-12-10T06:01:30;3.43;;;1.83;;
65238;SDS011;51827;51.186;6.926;2022-12-10T06:02:33;3.25;;;1.80;;
65238;SDS011;51827;51.186;6.926;2022-12-10T06:03:33;2.63;;;1.90;;
65238;SDS011;51827;51.186;6.926;2022-12-10T06:04:33;3.50;;;1.90;;
65238;SDS011;51827;51.186;6.926;2022-12-10T06:05:37;4.53;;;2.60;;
65238;SDS011;51827;51.186;6.926;2022-12-10T06:06:38;3.03;;;1.90;;
65238;SDS011;51827;51.186;6.926;2022-12-10T06:07:39;2.97;;;1.90;;
65238;SDS011;51827;51.186;6.926;2022-12-10T06:08:40;4.43;;;1.70;;
65238;SDS011;51827;51.186;6.926;2022-12-10T06:09:40;2.65;;;1.83;;
65238;SDS011;51827;51.186;6.926;2022-12-10T06:10:40;2.90;;;2.00;;
65238;SDS011;51827;51.186;6.926;2022-12-10T06:11:40;3.10;;;2.17;;
65238;SDS011;51827;51.186;6.926;2022-12-10T06:12:41;2.40;;;1.90;;
65238;SDS011;51827;51.186;6.926;2022-12-10T06:13:41;2.87;;;1.90;;
65238;SDS011;51827;51.186;6.926;2022-12-10T06:14:41;3.47;;;2.07;;
65238;SDS011;51827;51.186;6.926;2022-12-10T06:15:42;2.73;;;1.83;;
65238;SDS011;51827;51.186;6.926;2022-12-10T06:16:42;3.00;;;1.90;;
65238;SDS011;51827;51.186;6.926;2022-12-10T06:17:42;3.27;;;1.80;;
65238;SDS011;51827;51.186;6.926;2022-12-10T06:18:42;2.80;;;1.90;;
65238;SDS011;51827;51.186;6.926;2022-12-10T06:19:43;3.43;;;1.80;;
65238;SDS011;51827;51.186;6.926;2022-12-10T06:20:43;2.63;;;1.93;;
65238;SDS011;51827;51.186;6.926;2022-12-10T06:21:43;2.93;;;2.03;;
65238;SDS011;51827;51.186;6.926;2022-12-10T06:22:43;2.57;;;1.70;;
65238;SDS011;51827;51.186;6.926;2022-12-10T06:23:44;3.07;;;1.90;;
65238;SDS011;51827;51.186;6.926;2022-12-10T06:24:45;3.38;;;1.95;;
65238;SDS011;51827;51.186;6.926;2022-12-10T06:25:45;2.80;;;1.87;;
65238;SDS011;51827;51.186;6.926;2022-12-10T06:26:45;2.80;;;1.93;;
65238;SDS011;51827;51.186;6.926;2022-12-10T06:27:45;2.13;;;1.77;;
65238;SDS011;51827;51.186;6.926;2022-12-10T06:28:46;3.13;;;1.90;;
65238;SDS011;51827;51.186;6.926;2022-12-10T06:29:47;2.55;;;1.95;;
65238;SDS011;51827;51.186;6.926;2022-12-10T06:30:47;2.10;;;1.63;;
65238;SDS011;51827;51.186;6.926;2022-12-10T06:31:47;2.90;;;1.77;;
65238;SDS011;51827;51.186;6.926;2022-12-10T06:32:48;2.53;;;1.60;;
65238;SDS011;51827;51.186;6.926;2022-12-10T06:33:48;2.40;;;1.90;;
65238;SDS011;51827;51.186;6.926;2022-12-10T06:34:48;2.83;;;1.80;;
65238;SDS011;51827;51.186;6.926;2022-12-10T06:35:49;3.27;;;2.00;;
65238;SDS011;51827;51.186;6.926;2022-12-10T06:36:49;2.80;;;1.93;;
65238;SDS011;51827;51.186;6.926;2022-12-10T06:37:49;3.87;;;1.90;;
65238;SDS011;51827;51.186;6.926;2022-12-10T06:38:50;2.72;;;2.10;;
65238;SDS011;51827;51.186;6.926;2022-12-10T06:39:51;2.10;;;1.70;;
65238;SDS011;51827;51.186;6.926;2022-12-10T06:40:51;3.38;;;2.10;;
65238;SDS011;51827;51.186;6.926;2022-12-10T06:41:51;3.17;;;1.90;;
65238;SDS011;51827;51.186;6.926;2022-12-10T06:42:51;3.40;;;1.90;;
65238;SDS011;51827;51.186;6.926;2022-12-10T06:43:52;4.33;;;2.10;;
65238;SDS011;51827;51.186;6.926;2022-12-10T06:44:52;3.47;;;1.67;;